createdAt,value
2023-02-06T00:01:49.620Z,23.9
2023-02-06T00:06:51.311Z,23.9
2023-02-06T00:11:53.230Z,23.9
2023-02-06T00:16:54.889Z,23.9
2023-02-06T00:21:56.545Z,23.9
2023-02-06T00:26:58.438Z,23.9
2023-02-06T00:32:00.096Z,23.9
2023-02-06T00:37:01.722Z,23.9
2023-02-06T00:42:03.386Z,23.9
2023-02-06T00:47:05.073Z,24
2023-02-06T00:52:06.715Z,24
2023-02-06T00:57:08.611Z,23.9
2023-02-06T01:02:10.288Z,24
2023-02-06T01:07:11.942Z,24
2023-02-06T01:12:13.876Z,24
2023-02-06T01:17:15.555Z,24
2023-02-06T01:22:17.212Z,24
2023-02-06T01:27:18.917Z,24
2023-02-06T01:32:20.557Z,24
2023-02-06T01:37:22.233Z,24
2023-02-06T01:42:24.116Z,24.1
2023-02-06T01:47:25.767Z,24.1
2023-02-06T01:52:27.402Z,24.1
2023-02-06T01:57:29.172Z,24.1
2023-02-06T02:02:30.988Z,24.1
2023-02-06T02:07:32.635Z,24.1
2023-02-06T02:12:34.292Z,24.1
2023-02-06T02:17:35.944Z,24.1
2023-02-06T02:22:37.571Z,24.1
2023-02-06T02:27:39.266Z,24.1
2023-02-06T02:32:40.922Z,24.1
2023-02-06T02:37:42.574Z,24.1
2023-02-06T02:42:43.479Z,24.1
2023-02-06T02:47:45.141Z,24.1
2023-02-06T02:52:46.838Z,24.1
2023-02-06T02:57:48.509Z,24.1
2023-02-06T03:02:50.166Z,24.1
2023-02-06T03:07:51.831Z,24.1
2023-02-06T03:12:53.470Z,24.1
2023-02-06T03:17:55.127Z,24.1
2023-02-06T03:22:56.775Z,24.1
2023-02-06T03:27:58.733Z,24.2
2023-02-06T03:33:00.514Z,24.1
2023-02-06T03:38:02.168Z,24.2
2023-02-06T03:43:03.889Z,24.2
2023-02-06T03:48:05.539Z,24.2
2023-02-06T03:53:07.188Z,24.2
2023-02-06T03:58:08.886Z,24.2
2023-02-06T04:03:09.790Z,24.2
2023-02-06T04:08:11.459Z,24.2
2023-02-06T04:13:13.142Z,24.2
2023-02-06T04:18:14.818Z,24.2
2023-02-06T04:23:16.465Z,24.2
2023-02-06T04:28:18.274Z,24.2
2023-02-06T04:33:20.101Z,24.2
2023-02-06T04:38:21.786Z,24.2
2023-02-06T04:43:23.493Z,24.3
2023-02-06T04:48:25.370Z,24.3
2023-02-06T04:53:27.011Z,24.3
2023-02-06T04:58:32.378Z,24.2
2023-02-06T05:03:33.229Z,24.3
2023-02-06T05:08:34.892Z,24.3
2023-02-06T05:13:36.595Z,24.3
2023-02-06T05:18:37.737Z,24.3
2023-02-06T05:23:39.429Z,24.3
2023-02-06T05:28:41.136Z,24.3
2023-02-06T05:33:43.037Z,24.3
2023-02-06T05:38:44.674Z,24.3
2023-02-06T05:43:46.362Z,24.3
2023-02-06T05:48:48.020Z,24.3
2023-02-06T05:53:48.925Z,24.3
2023-02-06T05:58:50.657Z,24.3
2023-02-06T06:03:52.348Z,24.3
2023-02-06T06:08:54.027Z,24.3
2023-02-06T06:13:55.734Z,24.3
2023-02-06T06:18:57.399Z,24.3
2023-02-06T06:23:59.086Z,24.3
2023-02-06T06:29:01.008Z,24.3
2023-02-06T06:34:02.642Z,24.3
2023-02-06T06:39:04.290Z,24.3
2023-02-06T06:44:05.970Z,24.3
2023-02-06T06:49:07.611Z,24.3
2023-02-06T06:54:09.280Z,24.3
2023-02-06T06:59:11.219Z,24.3
2023-02-06T07:04:12.868Z,24.3
2023-02-06T07:09:14.559Z,24.3
2023-02-06T07:14:16.231Z,24.3
2023-02-06T07:19:18.148Z,24.3
2023-02-06T07:24:19.806Z,24.3
2023-02-06T07:29:21.665Z,24.3
2023-02-06T07:34:23.456Z,24.3
2023-02-06T07:39:25.140Z,24.3
2023-02-06T07:44:26.889Z,24.3
2023-02-06T07:49:28.579Z,24.3
2023-02-06T07:54:30.272Z,24.3
2023-02-06T07:59:31.942Z,24.3
2023-02-06T08:04:33.644Z,24.3
2023-02-06T08:09:35.414Z,24.3
2023-02-06T08:14:37.170Z,24.3
2023-02-06T08:19:38.850Z,24.3
2023-02-06T08:24:40.512Z,24.3
2023-02-06T08:29:42.222Z,24.3
2023-02-06T08:34:43.311Z,24.3
2023-02-06T08:39:45.068Z,24.3
2023-02-06T08:44:46.767Z,24.3
2023-02-06T08:49:48.412Z,24.3
2023-02-06T08:54:50.071Z,24.3
2023-02-06T08:59:51.791Z,24.3
2023-02-06T09:04:53.458Z,24.3
2023-02-06T09:09:55.179Z,24.3
2023-02-06T09:14:57.754Z,24.3
2023-02-06T09:19:58.848Z,24.3
2023-02-06T09:25:00.548Z,24.3
2023-02-06T09:30:02.381Z,24.3
2023-02-06T09:35:04.022Z,24.3
2023-02-06T09:40:05.803Z,24.3
2023-02-06T09:45:07.506Z,24.3
2023-02-06T09:50:09.203Z,24.3
2023-02-06T09:55:10.863Z,24.3
2023-02-06T10:00:12.557Z,24.3
2023-02-06T10:05:14.236Z,24.3
2023-02-06T10:10:15.922Z,24.3
2023-02-06T10:15:17.841Z,24.3
2023-02-06T10:20:19.767Z,24.3
2023-02-06T10:25:21.447Z,24.3
2023-02-06T10:30:23.267Z,24.3
2023-02-06T10:35:24.945Z,24.3
2023-02-06T10:40:26.633Z,24.3
2023-02-06T10:45:27.692Z,24.3
2023-02-06T10:50:29.402Z,24.3
2023-02-06T10:55:31.035Z,24.3
2023-02-06T11:00:32.739Z,24.3
2023-02-06T11:05:34.872Z,24.3
2023-02-06T11:10:37.151Z,24.3
2023-02-06T11:15:39.303Z,24.3
2023-02-06T11:20:41.378Z,24.3
2023-02-06T11:25:43.063Z,24.3
2023-02-06T11:30:44.169Z,24.3
2023-02-06T11:35:45.844Z,24.3
2023-02-06T11:40:46.679Z,24.3
2023-02-06T11:45:48.409Z,24.1
2023-02-06T11:50:50.175Z,24.1
2023-02-06T11:55:52.124Z,24.1
2023-02-06T12:00:53.873Z,24.1
2023-02-06T12:05:57.235Z,24.1
2023-02-06T12:11:00.231Z,24.1
2023-02-06T12:16:01.924Z,24.1
2023-02-06T12:21:03.876Z,24.1
2023-02-06T12:26:04.981Z,24.1
2023-02-06T12:31:06.968Z,24.1
2023-02-06T12:36:07.979Z,24.1
2023-02-06T12:41:09.685Z,24.1
2023-02-06T12:46:10.498Z,24.1
2023-02-06T12:51:12.271Z,24.1
2023-02-06T12:56:13.978Z,24.1
2023-02-06T13:01:27.578Z,24.1
2023-02-06T13:06:30.917Z,24.1
2023-02-06T13:11:32.632Z,24.1
2023-02-06T13:16:35.171Z,24.1
2023-02-06T13:21:36.069Z,24.1
2023-02-06T13:26:37.747Z,24.1
2023-02-06T13:31:39.448Z,24.1
2023-02-06T13:36:40.529Z,24.1
2023-02-06T13:41:42.210Z,24.1
2023-02-06T13:46:45.992Z,24.1
2023-02-06T13:51:46.914Z,24.1
2023-02-06T13:56:50.183Z,24.1
2023-02-06T14:01:51.870Z,24.1
2023-02-06T14:06:54.197Z,24.1
2023-02-06T14:11:59.223Z,24.1
2023-02-06T14:17:01.154Z,24.1
2023-02-06T14:22:02.993Z,24.1
2023-02-06T14:27:05.746Z,24.1
2023-02-06T14:32:07.405Z,24.1
2023-02-06T14:37:08.258Z,24.1
2023-02-06T14:42:09.920Z,24.1
2023-02-06T14:47:11.891Z,24.1
2023-02-06T14:52:13.561Z,24.1
2023-02-06T14:57:15.374Z,24.1
2023-02-06T15:02:17.040Z,24.1
2023-02-06T15:07:19.033Z,24.1
2023-02-06T15:12:20.737Z,24.1
2023-02-06T15:17:22.408Z,24.1
2023-02-06T15:22:24.518Z,24.1
2023-02-06T15:27:26.189Z,24.1
2023-02-06T15:32:27.924Z,24.1
2023-02-06T15:37:29.043Z,24.1
2023-02-06T15:42:29.900Z,24.1
2023-02-06T15:47:30.133Z,24.1
2023-02-06T15:52:31.877Z,24.1
2023-02-06T15:57:33.804Z,24.1
2023-02-06T16:02:35.810Z,24.1
2023-02-06T16:07:37.517Z,24.1
2023-02-06T16:12:38.380Z,24.1
2023-02-06T16:17:40.100Z,24.1
2023-02-06T16:22:41.776Z,24.1
2023-02-06T16:27:43.746Z,24.1
2023-02-06T16:32:45.439Z,24.1
2023-02-06T16:37:47.350Z,24.1
2023-02-06T16:42:48.992Z,24.1
2023-02-06T16:47:50.691Z,24.1
2023-02-06T16:52:52.333Z,24.1
2023-02-06T16:57:53.987Z,24.1
2023-02-06T17:02:55.701Z,24.1
2023-02-06T17:07:57.443Z,27.4
2023-02-06T17:12:59.516Z,30.3
2023-02-06T17:18:00.017Z,32.9
2023-02-06T17:23:01.496Z,35.7
2023-02-06T17:28:01.926Z,38.5
2023-02-06T17:33:02.547Z,41.3
2023-02-06T17:38:03.062Z,42.6
2023-02-06T17:43:04.063Z,42.4
2023-02-06T17:48:04.673Z,43.4
2023-02-06T17:53:05.487Z,43.7
2023-02-06T17:58:06.519Z,43.8
2023-02-06T18:03:07.184Z,43.9
2023-02-06T18:08:07.842Z,44.7
2023-02-06T18:18:15.602Z,44.9
2023-02-06T18:23:16.199Z,44.9
2023-02-06T18:28:16.860Z,44.9
2023-02-06T18:33:17.909Z,44.8
2023-02-06T18:38:18.542Z,44.8
2023-02-06T18:43:19.317Z,44.7
2023-02-06T18:48:19.923Z,44.7
2023-02-06T18:53:20.597Z,44.7
2023-02-06T18:58:21.182Z,44.7
2023-02-06T19:03:22.666Z,44.6
2023-02-06T19:08:23.316Z,44.6
2023-02-06T19:13:23.927Z,44.6
2023-02-06T19:18:37.146Z,44.6
2023-02-06T19:23:39.707Z,44.5
2023-02-06T19:28:40.312Z,44.5
2023-02-06T19:33:40.922Z,44.5
2023-02-06T19:38:41.554Z,44.4
2023-02-06T19:43:43.314Z,44.4
2023-02-06T19:48:44.045Z,44.4
2023-02-06T19:53:44.819Z,44.3
2023-02-06T19:58:45.436Z,44.3
2023-02-06T20:03:45.986Z,44.2
2023-02-06T20:08:46.599Z,44.2
2023-02-06T20:13:47.387Z,44.2
2023-02-06T20:18:48.012Z,44.1
2023-02-06T20:23:48.648Z,42.7
2023-02-06T20:28:49.210Z,42.1
2023-02-06T20:33:49.755Z,41.9
2023-02-06T20:38:51.348Z,41.8
2023-02-06T20:43:51.807Z,41.7
2023-02-06T20:48:52.351Z,41.6
2023-02-06T20:53:52.770Z,41.6
2023-02-06T20:58:53.354Z,41.5
2023-02-06T21:03:53.793Z,41.4
2023-02-06T21:08:54.230Z,41.3
2023-02-06T21:13:54.673Z,41.2
2023-02-06T21:18:55.120Z,41.2
2023-02-06T21:23:55.577Z,41.1
2023-02-06T21:28:56.039Z,41.1
2023-02-06T21:33:56.499Z,40.9
2023-02-06T21:38:57.004Z,40.9
2023-02-06T21:43:57.536Z,40.8
2023-02-06T21:48:58.072Z,40.8
2023-02-06T21:53:58.790Z,40.7
2023-02-06T21:58:59.609Z,40.6
2023-02-06T22:04:00.103Z,40.6
2023-02-06T22:09:00.638Z,40.4
2023-02-06T22:14:01.081Z,40.4
2023-02-06T22:19:01.773Z,40.3
2023-02-06T22:24:02.234Z,40.2
2023-02-06T22:29:02.747Z,40.2
2023-02-06T22:34:03.214Z,40.1
2023-02-06T22:39:03.657Z,40.1
2023-02-06T22:44:04.083Z,40
2023-02-06T22:49:04.953Z,39.9
2023-02-06T22:54:05.404Z,39.9
2023-02-06T22:59:05.809Z,39.8
2023-02-06T23:04:06.278Z,39.7
2023-02-06T23:09:06.784Z,39.7
2023-02-06T23:14:07.222Z,39.6
2023-02-06T23:19:07.694Z,39.6
2023-02-06T23:24:08.149Z,39.5
2023-02-06T23:29:08.810Z,39.4
2023-02-06T23:34:09.224Z,39.4
2023-02-06T23:39:09.856Z,39.3
2023-02-06T23:44:10.352Z,39.2
2023-02-06T23:49:10.829Z,39.2
2023-02-06T23:54:11.243Z,39.1
2023-02-06T23:59:11.671Z,39.1
